Time;durP1;ratioP1;P1;durP2;ratioP2;P2;SDS_P1;SDS_P2;PMS_P1;PMS_P2;Temp;Humidity;BMP_temperature;BMP_pressure;BME280_temperature;BME280_humidity;BME280_pressure;Samples;Min_cycle;Max_cycle;Signal;HPM_P1;HPM_P2
2023/03/06 00:02:22;;;;;;;4.45;1.02;;;3.50;99.90;;;;;;5030552;28;20088;-81
2023/03/06 00:04:48;;;;;;;6.45;1.33;;;3.50;99.90;;;;;;5013084;28;20488;-81
2023/03/06 00:07:14;;;;;;;4.65;1.02;;;3.50;99.90;;;;;;5035346;28;20411;-81
2023/03/06 00:09:42;;;;;;;4.78;1.30;;;3.50;99.90;;;;;;5031226;28;20048;-81
2023/03/06 00:12:08;;;;;;;3.83;1.27;;;3.50;99.90;;;;;;5018912;28;20049;-81
2023/03/06 00:14:34;;;;;;;4.80;1.08;;;3.50;99.90;;;;;;5013048;28;20645;-82
2023/03/06 00:17:02;;;;;;;5.05;1.25;;;3.50;99.90;;;;;;5031319;28;20408;-81
2023/03/06 00:19:28;;;;;;;7.00;1.38;;;3.50;99.90;;;;;;5021923;28;20044;-82
2023/03/06 00:21:57;;;;;;;6.95;1.45;;;3.60;99.90;;;;;;5021874;28;20502;-81
2023/03/06 00:24:25;;;;;;;5.30;1.23;;;3.60;99.90;;;;;;5013352;28;20036;-82
2023/03/06 00:26:51;;;;;;;4.25;1.10;;;3.60;99.90;;;;;;5026014;28;20044;-81
2023/03/06 00:29:19;;;;;;;4.07;1.38;;;3.60;99.90;;;;;;5023050;28;20045;-82
2023/03/06 00:31:46;;;;;;;5.10;1.23;;;3.60;99.90;;;;;;5032589;28;20042;-81
2023/03/06 00:34:13;;;;;;;5.13;1.23;;;3.60;99.90;;;;;;5032273;28;20045;-81
2023/03/06 00:36:39;;;;;;;8.52;1.80;;;3.60;99.90;;;;;;5015257;28;20091;-81
2023/03/06 00:39:04;;;;;;;8.20;1.08;;;3.60;99.90;;;;;;5026466;28;20114;-82
2023/03/06 00:41:30;;;;;;;4.60;1.00;;;3.60;99.90;;;;;;5031388;28;20806;-82
2023/03/06 00:43:58;;;;;;;5.65;1.10;;;3.60;99.90;;;;;;5018714;28;20059;-81
2023/03/06 00:46:24;;;;;;;9.52;1.55;;;3.60;99.90;;;;;;5017025;28;20400;-81
2023/03/06 00:48:50;;;;;;;8.00;1.63;;;3.60;99.90;;;;;;5028507;28;20060;-82
2023/03/06 00:51:18;;;;;;;6.00;1.38;;;3.60;99.90;;;;;;5037439;28;20046;-81
2023/03/06 00:53:44;;;;;;;7.32;1.40;;;3.60;99.90;;;;;;5035565;28;20061;-81
2023/03/06 00:56:09;;;;;;;4.53;1.30;;;3.50;99.90;;;;;;5023433;28;20042;-81
2023/03/06 00:58:36;;;;;;;11.63;1.83;;;3.60;99.90;;;;;;5040559;28;20053;-81
2023/03/06 01:01:02;;;;;;;6.25;1.40;;;3.60;99.90;;;;;;5020116;28;20053;-81
2023/03/06 01:03:28;;;;;;;8.77;1.45;;;3.60;99.90;;;;;;5022825;28;20041;-81
2023/03/06 01:05:53;;;;;;;6.25;1.60;;;3.60;99.90;;;;;;5013118;28;20247;-81
2023/03/06 01:08:19;;;;;;;3.90;1.48;;;3.60;99.90;;;;;;5028540;28;20087;-82
2023/03/06 01:10:45;;;;;;;7.40;1.70;;;3.60;99.90;;;;;;5031621;28;20079;-81
2023/03/06 01:13:10;;;;;;;7.38;1.50;;;3.60;99.90;;;;;;5037139;28;20098;-81
2023/03/06 01:15:39;;;;;;;5.25;1.38;;;3.50;99.90;;;;;;5024642;28;20120;-81
2023/03/06 01:18:05;;;;;;;11.45;1.70;;;3.60;99.90;;;;;;5031874;28;20034;-82
2023/03/06 01:20:34;;;;;;;4.00;1.17;;;4.00;99.90;;;;;;5037524;28;20088;-81
2023/03/06 01:23:00;;;;;;;4.68;1.60;;;3.50;99.90;;;;;;5030427;28;20334;-82
2023/03/06 01:25:27;;;;;;;7.28;1.23;;;3.50;99.90;;;;;;5021818;28;20561;-82
2023/03/06 01:27:52;;;;;;;5.22;1.30;;;3.50;99.90;;;;;;5013133;28;20099;-82
2023/03/06 01:30:19;;;;;;;5.63;1.42;;;3.50;99.90;;;;;;5026240;28;20443;-81
2023/03/06 01:32:45;;;;;;;5.32;1.20;;;3.50;99.90;;;;;;5008045;28;20049;-81
2023/03/06 01:35:11;;;;;;;3.92;1.20;;;3.50;99.90;;;;;;5009911;28;20110;-82
2023/03/06 01:37:38;;;;;;;7.80;1.90;;;3.50;99.90;;;;;;5031782;28;20041;-81
2023/03/06 01:40:06;;;;;;;4.50;1.33;;;3.50;99.90;;;;;;5026901;28;20685;-82
2023/03/06 01:42:31;;;;;;;5.78;1.45;;;3.50;99.90;;;;;;5012569;28;20045;-82
2023/03/06 01:45:12;;;;;;;3.92;1.25;;;3.50;99.90;;;;;;5031595;28;20026;-82
2023/03/06 01:47:38;;;;;;;5.78;1.40;;;3.50;99.90;;;;;;5015112;28;20043;-81
2023/03/06 01:50:07;;;;;;;4.97;1.55;;;3.40;99.90;;;;;;5022912;28;20049;-82
2023/03/06 01:52:38;;;;;;;5.25;1.30;;;3.40;99.90;;;;;;5011728;28;20125;-82
2023/03/06 01:55:12;;;;;;;5.88;1.23;;;3.40;99.90;;;;;;5013597;28;20057;-82
2023/03/06 01:57:51;;;;;;;6.57;1.60;;;3.40;99.90;;;;;;5011909;28;20038;-82
2023/03/06 02:00:21;;;;;;;3.83;1.50;;;3.40;99.90;;;;;;5026882;28;20859;-82
2023/03/06 02:02:56;;;;;;;5.88;1.30;;;3.40;99.90;;;;;;5012376;28;20056;-82
2023/03/06 02:05:22;;;;;;;3.08;1.13;;;3.40;99.90;;;;;;5013902;28;20407;-82
2023/03/06 02:07:50;;;;;;;6.55;1.50;;;3.40;99.90;;;;;;5013795;28;20073;-82
2023/03/06 02:10:17;;;;;;;5.38;1.50;;;3.40;99.90;;;;;;5008915;28;20121;-81
2023/03/06 02:12:43;;;;;;;4.93;1.23;;;3.40;99.90;;;;;;5024270;28;20054;-81
2023/03/06 02:15:15;;;;;;;3.47;1.27;;;3.40;99.90;;;;;;5008474;28;20127;-82
2023/03/06 02:17:43;;;;;;;9.93;1.52;;;3.40;99.90;;;;;;5016108;28;20108;-81
2023/03/06 02:20:11;;;;;;;7.20;1.23;;;3.40;99.90;;;;;;5021422;28;20055;-82
2023/03/06 02:22:53;;;;;;;5.15;1.40;;;3.40;99.90;;;;;;5015180;28;20121;-82
2023/03/06 02:25:45;;;;;;;3.83;1.33;;;3.40;99.90;;;;;;4994746;28;20532;-82
2023/03/06 02:28:14;;;;;;;4.35;1.48;;;3.40;99.90;;;;;;5020500;28;20030;-82
2023/03/06 02:30:41;;;;;;;5.78;1.45;;;3.40;99.90;;;;;;5009847;28;20590;-82
2023/03/06 02:33:10;;;;;;;4.53;1.23;;;3.50;99.90;;;;;;5019401;28;20124;-82
2023/03/06 02:35:37;;;;;;;4.93;1.30;;;3.50;99.90;;;;;;5021629;28;20047;-82
2023/03/06 02:38:12;;;;;;;2.75;1.35;;;3.50;99.90;;;;;;5014441;28;20500;-82
2023/03/06 02:40:38;;;;;;;2.85;1.27;;;3.50;99.90;;;;;;5006443;28;20052;-82
2023/03/06 02:43:04;;;;;;;3.33;1.20;;;3.40;99.90;;;;;;4996710;28;20037;-82
2023/03/06 02:45:41;;;;;;;3.60;1.25;;;3.40;99.90;;;;;;5006114;28;20069;-82
2023/03/06 02:48:07;;;;;;;3.88;1.35;;;3.40;99.90;;;;;;5015791;28;20034;-82
2023/03/06 02:50:33;;;;;;;4.68;1.05;;;3.30;99.90;;;;;;5019022;28;20030;-82
2023/03/06 02:52:58;;;;;;;2.60;0.90;;;3.30;99.90;;;;;;5034692;28;20049;-81
2023/03/06 02:55:24;;;;;;;2.30;1.10;;;3.30;99.90;;;;;;5014780;28;20060;-82
2023/03/06 02:57:50;;;;;;;1.92;0.80;;;3.30;99.90;;;;;;5017138;28;20050;-81
2023/03/06 03:00:19;;;;;;;2.95;1.10;;;3.30;99.90;;;;;;5015662;28;20068;-81
2023/03/06 03:02:47;;;;;;;2.35;1.20;;;3.20;99.90;;;;;;5007078;28;20080;-82
2023/03/06 03:05:13;;;;;;;2.90;1.20;;;3.70;99.90;;;;;;5011517;28;20081;-82
2023/03/06 03:07:39;;;;;;;3.38;1.27;;;3.20;99.90;;;;;;5008475;28;20073;-82
2023/03/06 03:10:08;;;;;;;3.35;1.20;;;3.20;99.90;;;;;;5012877;28;20109;-82
2023/03/06 03:12:37;;;;;;;3.58;1.25;;;3.10;99.90;;;;;;5014750;28;20042;-82
2023/03/06 03:15:03;;;;;;;3.33;1.15;;;3.10;99.90;;;;;;5017245;28;20046;-82
2023/03/06 03:17:29;;;;;;;3.45;1.50;;;3.10;99.90;;;;;;5015486;28;20034;-82
2023/03/06 03:19:55;;;;;;;4.85;1.90;;;3.10;99.90;;;;;;5009194;28;20508;-81
2023/03/06 03:22:23;;;;;;;3.50;1.35;;;3.00;99.90;;;;;;5013148;28;20501;-81
2023/03/06 03:24:52;;;;;;;3.67;1.05;;;3.00;99.90;;;;;;5018996;28;20049;-82
2023/03/06 03:27:17;;;;;;;4.10;1.20;;;2.90;99.90;;;;;;5024804;28;20036;-82
2023/03/06 03:29:43;;;;;;;4.50;1.15;;;3.00;99.90;;;;;;5015034;28;20052;-82
2023/03/06 03:32:09;;;;;;;3.35;1.10;;;3.00;99.90;;;;;;5013779;28;20042;-82
2023/03/06 03:34:35;;;;;;;4.07;0.90;;;2.90;99.90;;;;;;5012889;28;20588;-81
2023/03/06 03:37:07;;;;;;;2.97;1.10;;;3.00;99.90;;;;;;5015987;28;20123;-81
2023/03/06 03:39:33;;;;;;;4.07;1.10;;;2.90;99.90;;;;;;5008934;28;20433;-82
2023/03/06 03:41:58;;;;;;;2.83;1.00;;;3.00;99.90;;;;;;5014880;28;20070;-82
2023/03/06 03:44:26;;;;;;;2.85;1.10;;;3.00;99.90;;;;;;5012060;28;20485;-81
2023/03/06 03:46:58;;;;;;;3.17;0.95;;;3.00;99.90;;;;;;5014636;28;20048;-81
2023/03/06 03:49:24;;;;;;;2.53;0.93;;;3.00;99.90;;;;;;4994514;28;20054;-81
2023/03/06 03:51:49;;;;;;;3.53;1.05;;;2.90;99.90;;;;;;5014075;28;20442;-81
2023/03/06 03:54:15;;;;;;;3.65;1.10;;;2.90;99.90;;;;;;5017027;28;20045;-81
2023/03/06 03:56:46;;;;;;;3.55;1.10;;;2.90;99.90;;;;;;4999929;28;20061;-82
2023/03/06 03:59:12;;;;;;;3.13;0.80;;;3.00;99.90;;;;;;5038832;28;20037;-82
2023/03/06 04:01:44;;;;;;;2.03;0.77;;;2.90;99.90;;;;;;5035600;28;20044;-81
2023/03/06 04:04:10;;;;;;;2.60;0.95;;;2.90;99.90;;;;;;5014644;28;20119;-82
2023/03/06 04:06:44;;;;;;;2.47;1.00;;;2.90;99.90;;;;;;5032345;28;20500;-81
2023/03/06 04:09:10;;;;;;;2.30;0.80;;;2.90;99.90;;;;;;5021791;28;20079;-82
2023/03/06 04:11:38;;;;;;;2.45;0.98;;;2.90;99.90;;;;;;5035871;28;20077;-81
2023/03/06 04:14:04;;;;;;;2.80;1.10;;;2.90;99.90;;;;;;5032265;28;20072;-82
2023/03/06 04:16:29;;;;;;;1.90;0.90;;;2.90;99.90;;;;;;5033831;28;20067;-82
2023/03/06 04:18:55;;;;;;;3.38;1.00;;;2.90;99.90;;;;;;5038804;28;20048;-81
2023/03/06 04:21:35;;;;;;;3.33;0.90;;;2.80;99.90;;;;;;5014444;28;20124;-81
2023/03/06 04:24:01;;;;;;;3.15;1.23;;;2.80;99.90;;;;;;5038474;28;20037;-81
2023/03/06 04:26:26;;;;;;;2.50;1.20;;;2.80;99.90;;;;;;5014025;28;20060;-82
2023/03/06 04:28:52;;;;;;;4.10;1.25;;;2.80;99.90;;;;;;5030432;28;20037;-81
2023/03/06 04:31:18;;;;;;;3.28;1.13;;;2.80;99.90;;;;;;5014853;28;20502;-81
2023/03/06 04:33:43;;;;;;;5.43;1.60;;;2.80;99.90;;;;;;5034660;28;20041;-82
2023/03/06 04:36:23;;;;;;;4.22;1.67;;;2.80;99.90;;;;;;5014864;28;20235;-82
2023/03/06 04:38:52;;;;;;;3.75;1.67;;;2.80;99.90;;;;;;5017881;28;20128;-82
2023/03/06 04:41:17;;;;;;;3.47;1.60;;;2.80;99.90;;;;;;5036160;28;20068;-82
2023/03/06 04:43:43;;;;;;;4.28;1.77;;;2.70;99.90;;;;;;5012644;28;20099;-82
2023/03/06 04:46:10;;;;;;;3.95;1.60;;;2.70;99.90;;;;;;5028327;28;20044;-82
2023/03/06 04:48:36;;;;;;;4.90;1.58;;;2.70;99.90;;;;;;5018233;28;20037;-82
2023/03/06 04:51:05;;;;;;;4.13;1.88;;;2.70;99.90;;;;;;5031534;28;20491;-82
2023/03/06 04:53:36;;;;;;;6.30;1.95;;;2.80;99.90;;;;;;5032290;28;20383;-81
2023/03/06 04:56:08;;;;;;;4.07;1.83;;;3.90;99.90;;;;;;5024828;28;20511;-81
2023/03/06 04:58:33;;;;;;;3.83;1.52;;;2.60;99.90;;;;;;5019659;28;20052;-81
2023/03/06 05:00:59;;;;;;;4.72;1.58;;;2.60;99.90;;;;;;5035875;28;20029;-82
2023/03/06 05:03:24;;;;;;;3.67;1.63;;;2.50;99.90;;;;;;5016090;28;20208;-81
2023/03/06 05:05:50;;;;;;;4.57;1.63;;;2.60;99.90;;;;;;5036557;28;20032;-82
2023/03/06 05:08:17;;;;;;;4.10;1.48;;;2.60;99.90;;;;;;5021945;28;20064;-82
2023/03/06 05:10:43;;;;;;;7.65;2.17;;;2.60;99.90;;;;;;5015243;28;20496;-82
2023/03/06 05:13:09;;;;;;;5.20;2.20;;;2.60;99.90;;;;;;5021541;28;20047;-81
2023/03/06 05:15:35;;;;;;;5.07;1.45;;;2.50;99.90;;;;;;5034325;28;20524;-82
2023/03/06 05:18:08;;;;;;;7.70;3.33;;;2.60;99.90;;;;;;5018030;28;20048;-82
2023/03/06 05:20:34;;;;;;;7.25;2.30;;;2.60;99.90;;;;;;5039626;28;20032;-82
2023/03/06 05:23:03;;;;;;;6.45;2.20;;;2.50;99.90;;;;;;5034458;28;20044;-82
2023/03/06 05:25:31;;;;;;;7.43;2.20;;;2.50;99.90;;;;;;5035401;28;20029;-82
2023/03/06 05:27:57;;;;;;;7.50;2.28;;;2.70;99.90;;;;;;5033823;28;20045;-81
2023/03/06 05:30:23;;;;;;;5.45;2.05;;;2.60;99.90;;;;;;5005173;28;20048;-81
2023/03/06 05:32:52;;;;;;;5.65;2.10;;;2.60;99.90;;;;;;5027997;28;20149;-81
2023/03/06 05:35:22;;;;;;;5.65;2.20;;;2.60;99.90;;;;;;5037376;28;20030;-81
2023/03/06 05:37:48;;;;;;;5.28;2.17;;;2.60;99.90;;;;;;5041447;28;20477;-82
2023/03/06 05:40:17;;;;;;;7.40;2.75;;;2.60;99.90;;;;;;5018487;28;20040;-81
2023/03/06 05:42:43;;;;;;;8.77;2.60;;;2.60;99.90;;;;;;5022100;28;20064;-82
2023/03/06 05:45:12;;;;;;;4.53;2.03;;;2.60;99.90;;;;;;5019448;28;20044;-82
2023/03/06 05:47:38;;;;;;;5.30;1.98;;;2.50;99.90;;;;;;5028336;28;20046;-81
2023/03/06 05:50:04;;;;;;;7.72;2.38;;;2.60;99.90;;;;;;5023003;28;20069;-82
2023/03/06 05:52:32;;;;;;;8.93;2.63;;;2.60;99.90;;;;;;5035447;28;20134;-82
2023/03/06 05:54:58;;;;;;;6.60;2.80;;;2.60;99.90;;;;;;5037285;28;20511;-81
2023/03/06 05:57:24;;;;;;;5.75;2.55;;;2.50;99.90;;;;;;5016610;28;20044;-82
2023/03/06 05:59:50;;;;;;;7.20;2.80;;;2.50;99.90;;;;;;5001350;28;20273;-81
2023/03/06 06:02:17;;;;;;;8.55;2.90;;;2.50;99.90;;;;;;5037415;28;20037;-81
2023/03/06 06:04:42;;;;;;;5.63;1.70;;;2.50;99.90;;;;;;5038299;28;20041;-81
2023/03/06 06:07:12;;;;;;;7.57;2.40;;;2.40;99.90;;;;;;5036503;28;20060;-81
2023/03/06 06:09:38;;;;;;;5.78;2.20;;;2.40;99.90;;;;;;5034653;28;20540;-81
2023/03/06 06:12:04;;;;;;;7.63;2.33;;;2.40;99.90;;;;;;5032035;28;20041;-82
2023/03/06 06:14:32;;;;;;;5.30;2.20;;;2.40;99.90;;;;;;5038277;28;20040;-81
2023/03/06 06:17:01;;;;;;;6.93;2.63;;;2.40;99.90;;;;;;5040320;28;20052;-83
2023/03/06 06:19:30;;;;;;;4.75;1.80;;;2.40;99.90;;;;;;5037108;28;20033;-81
2023/03/06 06:21:56;;;;;;;6.72;2.40;;;2.40;99.90;;;;;;5036524;28;20499;-81
2023/03/06 06:24:24;;;;;;;6.75;2.67;;;2.30;99.90;;;;;;5037407;28;20061;-82
2023/03/06 06:26:52;;;;;;;6.95;2.42;;;2.40;99.90;;;;;;5015695;28;20384;-82
2023/03/06 06:29:17;;;;;;;6.57;2.65;;;2.40;99.90;;;;;;5040642;28;20095;-81
2023/03/06 06:31:43;;;;;;;7.25;2.33;;;2.40;99.90;;;;;;5039026;28;20045;-82
2023/03/06 06:34:10;;;;;;;8.57;3.03;;;2.40;99.90;;;;;;5035051;28;20132;-81
2023/03/06 06:36:36;;;;;;;5.75;2.30;;;2.40;99.90;;;;;;5036923;28;20036;-82
2023/03/06 06:39:02;;;;;;;6.65;2.63;;;2.40;99.90;;;;;;5036533;28;20041;-82
2023/03/06 06:41:28;;;;;;;6.22;2.38;;;2.40;99.90;;;;;;5034053;28;20081;-82
2023/03/06 06:43:54;;;;;;;5.93;1.95;;;2.40;99.90;;;;;;5034382;28;20076;-82
2023/03/06 06:46:20;;;;;;;5.93;2.20;;;2.40;99.90;;;;;;5025375;28;20044;-82
2023/03/06 06:48:51;;;;;;;5.25;2.63;;;2.30;99.90;;;;;;5040622;28;20033;-82
2023/03/06 06:51:17;;;;;;;6.63;3.03;;;2.30;99.90;;;;;;5015326;28;20108;-83
2023/03/06 06:53:43;;;;;;;5.90;2.38;;;2.30;99.90;;;;;;5025943;28;20136;-84
2023/03/06 06:56:09;;;;;;;6.30;2.85;;;3.10;99.90;;;;;;5015544;28;20102;-84
2023/03/06 06:58:35;;;;;;;6.90;2.60;;;2.20;99.90;;;;;;5033279;28;20480;-84
2023/03/06 07:01:09;;;;;;;6.18;2.42;;;2.20;99.90;;;;;;5035320;28;20041;-84
2023/03/06 07:03:34;;;;;;;6.03;2.50;;;2.20;99.90;;;;;;5019363;28;20120;-84
2023/03/06 07:06:00;;;;;;;5.57;2.17;;;2.20;99.90;;;;;;5030697;28;20116;-84
2023/03/06 07:08:26;;;;;;;5.15;1.98;;;2.20;99.90;;;;;;5034228;28;20061;-84
2023/03/06 07:10:52;;;;;;;6.57;2.38;;;2.20;99.90;;;;;;5021458;28;20044;-90
2023/03/06 07:13:18;;;;;;;5.28;2.20;;;2.20;99.90;;;;;;5037309;28;20037;-84
2023/03/06 07:15:43;;;;;;;5.47;2.28;;;2.20;99.90;;;;;;5038855;28;20042;-83
2023/03/06 07:18:09;;;;;;;8.40;2.63;;;2.20;99.90;;;;;;5029016;28;20030;-86
2023/03/06 07:20:35;;;;;;;6.63;2.33;;;2.20;99.90;;;;;;5025104;28;20064;-87
2023/03/06 07:23:01;;;;;;;6.60;2.88;;;2.20;99.90;;;;;;5024742;28;20053;-84
2023/03/06 07:25:26;;;;;;;7.65;2.58;;;2.20;99.90;;;;;;5029446;28;20041;-84
2023/03/06 07:27:55;;;;;;;7.28;2.45;;;2.20;99.90;;;;;;5035760;28;20044;-86
2023/03/06 07:30:22;;;;;;;6.63;2.67;;;2.30;99.90;;;;;;5029559;28;20072;-84
2023/03/06 07:32:50;;;;;;;5.75;2.50;;;2.30;99.90;;;;;;5038859;28;20033;-83
2023/03/06 07:35:16;;;;;;;8.85;2.25;;;2.30;99.90;;;;;;5032055;28;20480;-80
2023/03/06 07:37:42;;;;;;;7.05;2.42;;;2.30;99.90;;;;;;5036126;28;20083;-86
2023/03/06 07:40:09;;;;;;;6.78;2.83;;;2.30;99.90;;;;;;5032869;28;20845;-89
2023/03/06 07:42:35;;;;;;;7.72;2.50;;;2.30;99.90;;;;;;5036065;28;20045;-86
2023/03/06 07:45:02;;;;;;;5.90;2.90;;;2.30;99.90;;;;;;5020757;28;20041;-87
2023/03/06 07:47:28;;;;;;;7.40;2.92;;;2.30;99.90;;;;;;5026697;28;20049;-86
2023/03/06 07:49:55;;;;;;;4.90;2.10;;;2.40;99.90;;;;;;5037961;28;20052;-86
2023/03/06 07:52:24;;;;;;;8.02;3.53;;;2.40;99.90;;;;;;5022146;28;20045;-86
2023/03/06 07:54:50;;;;;;;6.18;2.65;;;2.40;99.90;;;;;;5020660;28;20048;-87
2023/03/06 07:57:16;;;;;;;6.43;2.40;;;2.60;99.90;;;;;;5015921;28;20056;-87
2023/03/06 07:59:41;;;;;;;6.80;2.30;;;2.20;99.90;;;;;;5032107;28;20122;-86
2023/03/06 08:02:10;;;;;;;8.75;2.75;;;2.40;99.90;;;;;;5014041;28;20038;-86
2023/03/06 08:04:36;;;;;;;8.13;2.88;;;2.40;99.90;;;;;;5019169;28;20120;-87
2023/03/06 08:07:02;;;;;;;5.38;2.03;;;2.50;99.90;;;;;;5032250;28;20120;-87
2023/03/06 08:09:28;;;;;;;5.90;2.35;;;2.40;99.90;;;;;;5034701;28;20480;-87
2023/03/06 08:11:54;;;;;;;5.25;1.55;;;2.50;99.90;;;;;;5035585;28;20041;-87
2023/03/06 08:14:20;;;;;;;5.43;1.83;;;2.40;99.90;;;;;;5036269;28;20514;-87
2023/03/06 08:16:47;;;;;;;5.53;1.92;;;2.50;99.90;;;;;;5019393;28;20119;-87
2023/03/06 08:19:14;;;;;;;3.90;1.55;;;2.50;99.90;;;;;;5020004;28;20132;-87
2023/03/06 08:21:39;;;;;;;4.72;1.67;;;2.60;99.90;;;;;;5024520;28;20045;-86
2023/03/06 08:24:05;;;;;;;6.72;1.83;;;2.60;99.90;;;;;;5018553;28;20033;-87
2023/03/06 08:26:31;;;;;;;4.55;1.60;;;2.60;99.90;;;;;;5033049;28;20036;-86
2023/03/06 08:28:59;;;;;;;4.35;1.65;;;2.70;99.90;;;;;;5036574;28;20075;-86
2023/03/06 08:31:37;;;;;;;5.82;1.80;;;2.70;99.90;;;;;;5015313;28;20033;-87
2023/03/06 08:34:06;;;;;;;8.88;2.08;;;2.80;99.90;;;;;;5035937;28;20083;-81
2023/03/06 08:36:32;;;;;;;6.25;1.90;;;3.20;99.90;;;;;;5030932;28;20033;-84
2023/03/06 08:38:58;;;;;;;5.53;1.75;;;2.90;99.90;;;;;;5034559;28;20044;-83
2023/03/06 08:41:24;;;;;;;3.95;1.27;;;2.90;99.90;;;;;;5036099;28;20049;-83
2023/03/06 08:43:50;;;;;;;4.28;1.58;;;2.90;99.90;;;;;;5013057;28;20112;-82
2023/03/06 08:46:17;;;;;;;4.13;1.83;;;2.90;99.90;;;;;;5031945;28;20037;-85
2023/03/06 08:48:46;;;;;;;5.25;1.60;;;2.90;99.90;;;;;;5034449;28;20104;-85
2023/03/06 08:51:12;;;;;;;3.65;1.60;;;2.90;99.90;;;;;;5037602;28;20507;-85
2023/03/06 08:53:38;;;;;;;6.68;1.38;;;2.90;99.90;;;;;;5038384;28;20057;-86
2023/03/06 08:56:04;;;;;;;5.53;1.48;;;3.00;99.90;;;;;;5035381;28;20052;-85
2023/03/06 08:58:29;;;;;;;5.45;1.33;;;3.00;99.90;;;;;;5036007;28;20045;-85
2023/03/06 09:00:55;;;;;;;5.50;1.10;;;3.00;99.90;;;;;;5039267;28;20511;-85
2023/03/06 09:03:22;;;;;;;4.03;1.23;;;3.10;99.90;;;;;;5023342;28;20246;-85
2023/03/06 09:05:48;;;;;;;4.35;1.48;;;3.10;99.90;;;;;;5014789;28;20045;-85
2023/03/06 09:08:14;;;;;;;2.78;1.08;;;3.20;99.90;;;;;;5017225;28;20613;-85
2023/03/06 09:10:44;;;;;;;3.50;1.20;;;3.20;99.90;;;;;;5038421;28;20068;-86
2023/03/06 09:13:09;;;;;;;2.75;1.08;;;3.50;99.90;;;;;;5009830;28;20498;-86
2023/03/06 09:15:35;;;;;;;2.47;0.80;;;3.30;99.90;;;;;;5024188;28;20041;-86
2023/03/06 09:18:01;;;;;;;3.13;1.08;;;3.40;99.90;;;;;;5036107;28;20033;-86
2023/03/06 09:20:27;;;;;;;3.67;1.10;;;3.50;99.90;;;;;;5020716;28;20060;-86
2023/03/06 09:22:53;;;;;;;3.65;1.40;;;3.50;99.90;;;;;;5026197;28;20041;-86
2023/03/06 09:25:21;;;;;;;2.83;0.90;;;3.60;99.90;;;;;;5033150;28;20497;-86
2023/03/06 09:27:48;;;;;;;1.80;0.80;;;3.70;99.90;;;;;;5037361;28;20038;-86
2023/03/06 09:30:14;;;;;;;2.28;0.88;;;3.80;99.90;;;;;;5041959;28;20048;-86
2023/03/06 09:32:40;;;;;;;3.33;0.90;;;4.00;99.90;;;;;;5034514;28;20041;-85
2023/03/06 09:35:06;;;;;;;4.15;0.95;;;4.00;99.90;;;;;;5031940;28;20035;-86
2023/03/06 09:37:32;;;;;;;3.72;1.00;;;4.10;99.90;;;;;;5039907;28;20036;-85
2023/03/06 09:39:57;;;;;;;3.42;0.70;;;4.10;99.90;;;;;;5031585;28;20041;-85
2023/03/06 09:42:24;;;;;;;8.15;1.33;;;4.20;99.90;;;;;;5035281;28;20029;-88
2023/03/06 09:44:57;;;;;;;3.45;1.00;;;4.90;99.90;;;;;;5019896;28;20076;-86
2023/03/06 09:47:46;;;;;;;4.13;1.27;;;4.30;99.90;;;;;;5015350;28;20033;-85
2023/03/06 09:50:42;;;;;;;3.42;0.80;;;4.50;99.90;;;;;;5019286;28;20296;-85
2023/03/06 09:53:29;;;;;;;4.22;0.80;;;4.60;99.90;;;;;;5033146;28;20058;-85
2023/03/06 09:56:08;;;;;;;4.47;0.80;;;4.70;99.90;;;;;;5035884;28;20037;-85
2023/03/06 09:58:42;;;;;;;2.45;0.63;;;4.80;99.90;;;;;;5015642;28;20124;-86
2023/03/06 10:01:17;;;;;;;3.70;0.60;;;4.90;99.90;;;;;;5035914;28;20099;-86
2023/03/06 10:04:00;;;;;;;;;;;5.00;99.90;;;;;;5011909;28;20080;-86
2023/03/06 10:06:30;;;;;;;3.95;0.70;;;5.20;99.90;;;;;;5023506;28;19956;-86
2023/03/06 10:09:20;;;;;;;5.75;0.45;;;5.40;99.90;;;;;;5015321;28;20045;-86
2023/03/06 10:12:05;;;;;;;2.83;0.60;;;5.50;99.90;;;;;;5032759;28;20045;-86
2023/03/06 10:14:36;;;;;;;3.95;1.00;;;5.70;99.90;;;;;;5020760;28;20051;-85
2023/03/06 10:17:03;;;;;;;2.22;0.40;;;5.90;99.90;;;;;;5021983;28;20069;-86
2023/03/06 10:19:38;;;;;;;3.60;0.57;;;6.20;99.90;;;;;;5032626;28;20038;-85
2023/03/06 10:22:23;;;;;;;1.27;0.40;;;6.10;99.90;;;;;;5014026;28;20041;-86
2023/03/06 10:25:23;;;;;;;1.90;0.45;;;6.20;99.90;;;;;;5023394;28;20038;-87
2023/03/06 10:27:55;;;;;;;1.95;0.35;;;6.20;99.90;;;;;;5040747;28;20224;-86
2023/03/06 10:30:32;;;;;;;2.60;0.45;;;6.30;99.90;;;;;;5014500;28;20041;-87
2023/03/06 10:32:59;;;;;;;1.27;0.43;;;6.40;99.90;;;;;;5035870;28;20042;-86
2023/03/06 10:35:33;;;;;;;1.98;0.47;;;6.50;99.90;;;;;;5040511;28;20044;-86
2023/03/06 10:38:12;;;;;;;2.38;0.40;;;6.60;99.90;;;;;;5019267;28;20069;-86
2023/03/06 10:40:53;;;;;;;3.30;0.57;;;6.60;99.90;;;;;;5029311;28;20669;-86
2023/03/06 10:43:20;;;;;;;2.72;0.30;;;6.60;99.90;;;;;;5014450;28;20412;-86
2023/03/06 10:45:49;;;;;;;3.50;0.55;;;6.70;99.90;;;;;;5015151;28;20415;-87
2023/03/06 10:48:19;;;;;;;1.20;0.40;;;6.80;99.90;;;;;;5007373;28;20045;-87
2023/03/06 10:50:45;;;;;;;2.63;0.50;;;7.00;99.90;;;;;;5032553;28;20527;-91
2023/03/06 10:53:27;;;;;;;3.25;0.57;;;7.10;99.90;;;;;;5001891;28;20053;-85
2023/03/06 10:55:57;;;;;;;3.40;0.65;;;7.30;99.90;;;;;;5023457;28;20049;-85
2023/03/06 10:58:31;;;;;;;3.47;0.50;;;7.90;99.90;;;;;;5015253;28;20048;-85
2023/03/06 11:01:20;;;;;;;2.75;0.30;;;7.40;99.90;;;;;;5037914;28;20069;-85
2023/03/06 11:03:46;;;;;;;2.22;0.40;;;7.40;99.90;;;;;;5039586;28;20041;-83
2023/03/06 11:06:31;;;;;;;2.28;0.35;;;7.50;99.90;;;;;;5015487;28;20472;-84
2023/03/06 11:09:21;;;;;;;2.13;0.28;;;8.00;99.90;;;;;;5017642;28;20400;-84
2023/03/06 11:11:48;;;;;;;1.08;0.20;;;7.60;99.90;;;;;;5037101;28;20052;-85
2023/03/06 11:14:21;;;;;;;2.42;0.30;;;7.60;99.90;;;;;;5029771;28;20041;-84
2023/03/06 11:16:52;;;;;;;3.58;0.30;;;7.60;99.90;;;;;;5009948;28;20492;-85
2023/03/06 11:19:26;;;;;;;1.02;0.30;;;7.70;99.90;;;;;;5009402;28;20057;-85
2023/03/06 11:22:19;;;;;;;1.77;0.32;;;8.00;99.90;;;;;;5035114;28;20075;-85
2023/03/06 11:24:49;;;;;;;1.48;0.40;;;8.20;99.90;;;;;;5026951;28;20114;-85
2023/03/06 11:27:17;;;;;;;2.42;0.30;;;8.30;99.90;;;;;;5033261;28;20099;-85
2023/03/06 11:29:49;;;;;;;4.95;0.50;;;8.30;99.90;;;;;;5021212;28;20056;-84
2023/03/06 11:32:31;;;;;;;2.63;0.40;;;8.50;99.90;;;;;;5019027;28;20053;-85
2023/03/06 11:35:05;;;;;;;4.38;0.63;;;8.20;99.90;;;;;;5030672;28;20038;-85
2023/03/06 11:37:31;;;;;;;2.20;0.52;;;8.50;99.90;;;;;;5039241;28;20037;-85
2023/03/06 11:40:41;;;;;;;2.53;0.30;;;8.60;99.90;;;;;;5037830;28;20396;-85
2023/03/06 11:43:27;;;;;;;2.83;0.40;;;8.60;99.90;;;;;;5019365;28;20045;-85
2023/03/06 11:46:21;;;;;;;3.08;0.50;;;8.50;99.90;;;;;;5011915;28;20388;-84
2023/03/06 11:49:30;;;;;;;2.30;0.40;;;8.30;99.90;;;;;;5011999;28;20044;-85
2023/03/06 11:52:05;;;;;;;3.55;0.40;;;8.00;99.90;;;;;;5012694;28;20041;-84
2023/03/06 11:54:32;;;;;;;3.80;0.43;;;7.90;99.90;;;;;;5030265;28;20045;-85
2023/03/06 11:57:05;;;;;;;4.28;0.85;;;7.80;99.90;;;;;;5030495;28;20038;-84
2023/03/06 12:00:06;;;;;;;2.15;0.35;;;7.80;99.90;;;;;;5036681;28;20049;-84
2023/03/06 12:03:07;;;;;;;1.67;0.60;;;8.00;99.90;;;;;;4962195;28;20054;-86
2023/03/06 12:05:59;;;;;;;1.92;0.40;;;8.20;99.90;;;;;;4962356;28;20050;-83
2023/03/06 12:08:44;;;;;;;7.00;0.82;;;8.20;99.90;;;;;;4959446;28;20039;-84
2023/03/06 12:11:29;;;;;;;1.83;0.40;;;8.00;99.90;;;;;;4970450;28;20454;-85
2023/03/06 12:14:12;;;;;;;;;;;7.80;99.90;;;;;;4969584;28;20057;-85
2023/03/06 12:16:57;;;;;;;3.53;0.60;;;7.70;99.90;;;;;;4973803;28;19917;-84
2023/03/06 12:19:37;;;;;;;3.47;0.50;;;7.70;99.90;;;;;;4975118;28;20050;-84
2023/03/06 12:22:44;;;;;;;1.17;0.40;;;7.60;99.90;;;;;;4956223;28;20088;-84
2023/03/06 12:25:21;;;;;;;0.70;0.30;;;7.50;99.90;;;;;;4961381;28;20580;-84
2023/03/06 12:28:01;;;;;;;3.65;0.60;;;7.50;99.90;;;;;;4983171;28;20034;-85
2023/03/06 12:30:55;;;;;;;2.38;0.28;;;7.50;99.90;;;;;;4966698;28;20502;-84
2023/03/06 12:33:36;;;;;;;1.80;0.25;;;7.50;99.90;;;;;;4948110;28;20046;-84
2023/03/06 12:36:39;;;;;;;2.50;0.60;;;7.50;99.90;;;;;;4965646;28;20487;-84
2023/03/06 12:39:07;;;;;;;2.45;0.40;;;7.60;99.90;;;;;;5031045;28;20132;-84
2023/03/06 12:42:11;;;;;;;1.88;0.60;;;7.50;99.90;;;;;;5044545;28;20029;-84
2023/03/06 12:44:51;;;;;;;1.27;0.50;;;7.50;99.90;;;;;;5018356;28;20484;-84
2023/03/06 12:47:20;;;;;;;2.40;0.60;;;7.40;99.90;;;;;;5010026;28;20132;-84
2023/03/06 12:50:32;;;;;;;2.17;0.63;;;7.20;99.90;;;;;;5022407;28;20077;-84
2023/03/06 12:53:07;;;;;;;2.10;0.70;;;7.20;99.90;;;;;;5028697;28;20056;-84
2023/03/06 12:55:41;;;;;;;2.42;0.60;;;7.10;99.90;;;;;;5023011;28;20045;-84
2023/03/06 12:58:28;;;;;;;1.30;0.50;;;7.10;99.90;;;;;;5028723;28;20029;-84
2023/03/06 13:01:12;;;;;;;2.05;0.60;;;7.00;99.90;;;;;;5038453;28;20401;-86
2023/03/06 13:04:14;;;;;;;2.00;0.70;;;7.00;99.90;;;;;;5015333;28;20801;-86
2023/03/06 13:07:00;;;;;;;2.08;0.65;;;7.10;99.90;;;;;;5008379;28;20041;-86
2023/03/06 13:09:32;;;;;;;3.08;0.80;;;7.20;99.90;;;;;;5015837;28;20496;-87
2023/03/06 13:12:07;;;;;;;4.85;1.00;;;7.30;99.90;;;;;;5021999;28;20492;-86
2023/03/06 13:14:35;;;;;;;2.08;0.70;;;7.40;99.90;;;;;;5019500;28;20037;-84
2023/03/06 13:17:19;;;;;;;2.85;0.73;;;7.50;99.90;;;;;;5034283;28;20087;-85